createdAt,value
2018-07-28T00:00:29.485Z,21.88
2018-07-28T00:02:57.669Z,21.97
2018-07-28T00:05:25.889Z,21.88
2018-07-28T00:07:54.085Z,21.94
2018-07-28T00:10:22.289Z,21.73
2018-07-28T00:12:50.524Z,21.73
2018-07-28T00:15:20.552Z,21.71
2018-07-28T00:17:48.810Z,21.84
2018-07-28T00:20:16.988Z,21.79
2018-07-28T00:22:45.470Z,21.55
2018-07-28T00:25:13.745Z,21.54
2018-07-28T00:27:42.274Z,21.37
2018-07-28T00:30:11.984Z,21.55
2018-07-28T00:32:40.158Z,21.38
2018-07-28T00:35:08.366Z,21.39
2018-07-28T00:37:37.029Z,21.31
2018-07-28T00:40:05.907Z,21.23
2018-07-28T00:42:34.353Z,21.25
2018-07-28T00:45:02.546Z,21.09
2018-07-28T00:47:30.758Z,21.07
2018-07-28T00:49:58.950Z,20.85
2018-07-28T00:52:27.133Z,20.84
2018-07-28T00:54:55.319Z,20.71
2018-07-28T00:57:23.501Z,20.75
2018-07-28T00:59:51.705Z,20.93
2018-07-28T01:02:19.877Z,20.77
2018-07-28T01:04:48.053Z,20.89
2018-07-28T01:07:16.493Z,20.83
2018-07-28T01:09:44.721Z,20.86
2018-07-28T01:12:12.930Z,20.75
2018-07-28T01:14:41.221Z,20.77
2018-07-28T01:17:09.811Z,20.77
2018-07-28T01:19:38.368Z,20.74
2018-07-28T01:22:06.561Z,20.62
2018-07-28T01:24:34.863Z,20.64
2018-07-28T01:27:03.121Z,20.64
2018-07-28T01:29:31.308Z,20.64
2018-07-28T01:31:59.496Z,20.64
2018-07-28T01:34:27.687Z,20.59
2018-07-28T01:36:56.117Z,20.59
2018-07-28T01:39:24.382Z,20.57
2018-07-28T01:41:52.589Z,20.54
2018-07-28T01:44:20.843Z,20.47
2018-07-28T01:46:49.011Z,20.48
2018-07-28T01:49:17.460Z,20.42
2018-07-28T01:51:45.678Z,20.36
2018-07-28T01:54:13.860Z,20.25
2018-07-28T01:56:42.116Z,20.26
2018-07-28T01:59:10.326Z,20.27
2018-07-28T02:01:38.568Z,20.20
2018-07-28T02:04:06.762Z,20.26
2018-07-28T02:06:34.967Z,20.24
2018-07-28T02:09:03.218Z,20.26
2018-07-28T02:11:31.394Z,20.19
2018-07-28T02:13:59.584Z,20.13
2018-07-28T02:16:28.133Z,20.05
2018-07-28T02:18:56.363Z,20.07
2018-07-28T02:21:24.606Z,20.04
2018-07-28T02:23:52.825Z,20.00
2018-07-28T02:26:21.001Z,20.01
2018-07-28T02:28:49.213Z,19.94
2018-07-28T02:31:17.461Z,19.88
2018-07-28T02:33:45.649Z,19.77
2018-07-28T02:36:13.926Z,19.72
2018-07-28T02:38:42.213Z,19.71
2018-07-28T02:41:10.463Z,19.70
2018-07-28T02:43:38.644Z,19.54
2018-07-28T02:46:06.872Z,19.19
2018-07-28T02:48:34.995Z,19.31
2018-07-28T02:51:03.236Z,19.00
2018-07-28T02:53:31.437Z,19.08
2018-07-28T02:55:59.688Z,19.23
2018-07-28T02:58:28.030Z,19.16
2018-07-28T03:00:56.473Z,19.11
2018-07-28T03:03:24.661Z,19.00
2018-07-28T03:05:52.979Z,19.04
2018-07-28T03:08:21.139Z,19.10
2018-07-28T03:10:49.390Z,19.16
2018-07-28T03:13:17.690Z,18.92
2018-07-28T03:15:45.956Z,18.96
2018-07-28T03:18:14.197Z,19.02
2018-07-28T03:20:42.388Z,19.10
2018-07-28T03:23:10.576Z,19.17
2018-07-28T03:25:38.818Z,18.98
2018-07-28T03:28:07.026Z,18.88
2018-07-28T03:30:35.270Z,19.09
2018-07-28T03:33:03.474Z,19.13
2018-07-28T03:35:31.657Z,19.03
2018-07-28T03:37:59.830Z,19.11
2018-07-28T03:40:28.101Z,19.06
2018-07-28T03:42:56.291Z,18.99
2018-07-28T03:45:24.535Z,18.76
2018-07-28T03:47:52.713Z,18.69
2018-07-28T03:50:20.985Z,18.66
2018-07-28T03:52:49.157Z,18.65
2018-07-28T03:55:17.413Z,18.93
2018-07-28T03:57:45.612Z,18.88
2018-07-28T04:00:13.803Z,18.88
2018-07-28T04:02:42.370Z,18.97
2018-07-28T04:05:11.878Z,18.88
2018-07-28T04:07:40.602Z,18.91
2018-07-28T04:10:09.690Z,19.04
2018-07-28T04:12:38.110Z,19.00
2018-07-28T04:15:09.515Z,19.10
2018-07-28T04:17:55.018Z,19.13
2018-07-28T04:20:24.726Z,19.41
2018-07-28T04:22:53.445Z,19.60
2018-07-28T04:25:22.149Z,19.76
2018-07-28T04:27:50.673Z,19.66
2018-07-28T04:30:18.953Z,19.89
2018-07-28T04:32:47.188Z,19.86
2018-07-28T04:35:15.381Z,20.03
2018-07-28T04:37:43.621Z,19.98
2018-07-28T04:40:12.676Z,20.06
2018-07-28T04:42:41.985Z,20.11
2018-07-28T04:45:10.185Z,20.31
2018-07-28T04:47:38.379Z,20.41
2018-07-28T04:50:06.586Z,20.35
2018-07-28T04:52:34.813Z,20.36
2018-07-28T04:55:03.125Z,20.35
2018-07-28T04:57:31.732Z,20.49
2018-07-28T04:59:59.910Z,20.43
2018-07-28T05:02:28.750Z,20.53
2018-07-28T05:04:57.472Z,20.62
2018-07-28T05:07:26.434Z,20.68
2018-07-28T05:09:55.071Z,20.63
2018-07-28T05:12:23.800Z,20.71
2018-07-28T05:14:51.986Z,20.65
2018-07-28T05:17:20.414Z,20.59
2018-07-28T05:19:48.614Z,20.85
2018-07-28T05:22:17.057Z,20.92
2018-07-28T05:24:45.278Z,21.04
2018-07-28T05:27:13.826Z,21.51
2018-07-28T05:29:42.050Z,21.62
2018-07-28T05:32:10.236Z,21.39
2018-07-28T05:34:38.476Z,21.40
2018-07-28T05:37:06.800Z,21.75
2018-07-28T05:39:35.133Z,21.91
2018-07-28T05:42:03.844Z,22.13
2018-07-28T05:44:32.038Z,22.43
2018-07-28T05:47:00.225Z,22.57
2018-07-28T05:49:28.649Z,22.63
2018-07-28T05:51:57.034Z,22.62
2018-07-28T05:54:25.251Z,22.88
2018-07-28T05:56:53.597Z,23.15
2018-07-28T05:59:21.825Z,23.12
2018-07-28T06:01:50.083Z,23.27
2018-07-28T06:04:18.307Z,23.55
2018-07-28T06:06:46.547Z,23.46
2018-07-28T06:09:14.877Z,23.75
2018-07-28T06:11:43.476Z,23.50
2018-07-28T06:14:11.687Z,23.36
2018-07-28T06:16:39.922Z,23.88
2018-07-28T06:19:08.226Z,24.07
2018-07-28T06:21:36.722Z,23.86
2018-07-28T06:24:04.948Z,23.50
2018-07-28T06:26:33.178Z,23.76
2018-07-28T06:29:01.570Z,23.86
2018-07-28T06:31:29.931Z,24.05
2018-07-28T06:33:58.136Z,24.11
2018-07-28T06:36:26.371Z,24.28
2018-07-28T06:38:54.595Z,24.49
2018-07-28T06:41:22.860Z,24.31
2018-07-28T06:43:51.024Z,24.17
2018-07-28T06:46:19.241Z,24.40
2018-07-28T06:48:47.437Z,24.60
2018-07-28T06:51:15.621Z,24.59
2018-07-28T06:53:43.958Z,25.00
2018-07-28T06:56:12.267Z,24.92
2018-07-28T06:58:40.536Z,24.95
2018-07-28T07:01:08.617Z,25.47
2018-07-28T07:03:36.780Z,25.51
2018-07-28T07:06:05.925Z,25.82
2018-07-28T07:08:34.153Z,25.85
2018-07-28T07:11:02.371Z,25.88
2018-07-28T07:13:30.875Z,26.00
2018-07-28T07:15:59.064Z,26.09
2018-07-28T07:18:27.304Z,26.35
2018-07-28T07:20:55.487Z,26.22
2018-07-28T07:23:23.910Z,26.58
2018-07-28T07:25:52.110Z,26.61
2018-07-28T07:28:21.658Z,26.83
2018-07-28T07:30:49.992Z,26.85
2018-07-28T07:33:18.454Z,26.90
2018-07-28T07:35:46.694Z,27.00
2018-07-28T07:38:16.603Z,27.16
2018-07-28T07:40:45.415Z,27.07
2018-07-28T07:43:13.554Z,27.24
2018-07-28T07:45:41.869Z,27.29
2018-07-28T07:48:10.077Z,27.40
2018-07-28T07:50:38.249Z,27.11
2018-07-28T07:53:06.477Z,27.22
2018-07-28T07:55:34.833Z,27.55
2018-07-28T07:58:03.017Z,27.94
2018-07-28T08:00:31.813Z,27.67
2018-07-28T08:03:00.231Z,28.16
2018-07-28T08:05:28.398Z,28.14
2018-07-28T08:07:56.641Z,28.41
2018-07-28T08:10:24.947Z,28.06
2018-07-28T08:12:53.178Z,28.33
2018-07-28T08:15:23.109Z,28.46
2018-07-28T08:17:51.378Z,28.54
2018-07-28T08:20:19.592Z,28.13
2018-07-28T08:22:47.845Z,28.46
2018-07-28T08:25:16.095Z,29.19
2018-07-28T08:27:44.272Z,28.76
2018-07-28T08:30:12.765Z,28.17
2018-07-28T08:32:40.968Z,29.28
2018-07-28T08:35:09.860Z,28.73
2018-07-28T08:37:38.436Z,29.19
2018-07-28T08:40:06.857Z,28.80
2018-07-28T08:42:35.318Z,29.13
2018-07-28T08:45:03.587Z,28.97
2018-07-28T08:47:32.072Z,29.43
2018-07-28T08:50:00.402Z,29.41
2018-07-28T08:52:28.990Z,30.08
2018-07-28T08:54:57.172Z,29.94
2018-07-28T08:57:25.350Z,29.64
2018-07-28T08:59:54.022Z,29.90
2018-07-28T09:02:22.246Z,30.06
2018-07-28T09:04:50.413Z,30.01
2018-07-28T09:07:18.642Z,30.04
2018-07-28T09:09:46.913Z,30.68
2018-07-28T09:12:15.348Z,30.55
2018-07-28T09:14:44.069Z,30.65
2018-07-28T09:17:12.657Z,30.46
2018-07-28T09:19:40.939Z,31.39
2018-07-28T09:22:09.146Z,31.06
2018-07-28T09:24:37.376Z,31.04
2018-07-28T09:27:05.769Z,31.42
2018-07-28T09:29:34.065Z,30.82
2018-07-28T09:32:02.628Z,31.39
2018-07-28T09:34:30.916Z,31.55
2018-07-28T09:36:59.237Z,31.61
2018-07-28T09:39:27.474Z,31.81
2018-07-28T09:41:55.880Z,31.29
2018-07-28T09:44:24.110Z,31.38
2018-07-28T09:46:52.402Z,32.59
2018-07-28T09:49:20.572Z,32.61
2018-07-28T09:51:48.994Z,32.93
2018-07-28T09:54:17.474Z,32.72
2018-07-28T09:56:45.794Z,32.96
2018-07-28T09:59:13.986Z,33.13
2018-07-28T10:01:42.194Z,33.14
2018-07-28T10:04:10.376Z,33.00
2018-07-28T10:06:38.604Z,32.35
2018-07-28T10:09:09.541Z,33.25
2018-07-28T10:11:37.701Z,34.37
2018-07-28T10:14:06.137Z,34.28
2018-07-28T10:16:34.414Z,33.83
2018-07-28T10:19:02.629Z,33.41
2018-07-28T10:21:30.925Z,33.21
2018-07-28T10:23:59.173Z,33.13
2018-07-28T10:26:27.765Z,32.88
2018-07-28T10:28:55.945Z,33.86
2018-07-28T10:31:24.396Z,34.20
2018-07-28T10:33:52.627Z,32.96
2018-07-28T10:36:20.884Z,33.85
2018-07-28T10:38:49.058Z,33.78
2018-07-28T10:41:17.644Z,34.45
2018-07-28T10:43:45.862Z,34.89
2018-07-28T10:46:14.245Z,34.76
2018-07-28T10:48:42.650Z,34.81
2018-07-28T10:51:11.176Z,34.35
2018-07-28T10:53:39.418Z,33.56
2018-07-28T10:56:07.646Z,33.65
2018-07-28T10:58:35.941Z,35.64
2018-07-28T11:01:04.249Z,33.37
2018-07-28T11:03:32.413Z,33.69
2018-07-28T11:06:00.716Z,35.23
2018-07-28T11:08:28.930Z,35.33
2018-07-28T11:10:57.151Z,34.53
2018-07-28T11:13:25.339Z,37.63
2018-07-28T11:15:53.608Z,36.14
2018-07-28T11:18:21.785Z,34.31
2018-07-28T11:20:50.161Z,37.61
2018-07-28T11:23:57.185Z,41.52
2018-07-28T11:26:25.464Z,38.60
2018-07-28T11:28:54.427Z,42.04
2018-07-28T11:31:34.784Z,42.72
2018-07-28T11:34:14.869Z,46.02
2018-07-28T11:36:55.073Z,47.62
2018-07-28T11:39:34.701Z,40.51
2018-07-28T11:42:14.434Z,38.21
2018-07-28T11:44:54.029Z,37.54
2018-07-28T11:47:22.292Z,37.28
2018-07-28T11:49:50.534Z,37.74
2018-07-28T11:52:18.753Z,37.16
2018-07-28T11:54:47.008Z,38.00
2018-07-28T11:57:15.168Z,38.55
2018-07-28T11:59:43.358Z,43.60
2018-07-28T12:02:11.633Z,42.23
2018-07-28T12:04:39.794Z,45.11
2018-07-28T12:07:07.970Z,38.11
2018-07-28T12:09:36.162Z,36.99
2018-07-28T12:12:04.426Z,45.83
2018-07-28T12:14:32.726Z,47.22
2018-07-28T12:17:00.982Z,52.36
2018-07-28T12:19:29.501Z,48.61
2018-07-28T12:21:57.737Z,43.68
2018-07-28T12:24:25.920Z,40.25
2018-07-28T12:26:54.113Z,37.53
2018-07-28T12:29:22.683Z,41.39
2018-07-28T12:31:50.945Z,51.84
2018-07-28T12:34:19.141Z,48.09
2018-07-28T12:36:47.333Z,52.53
2018-07-28T12:39:15.500Z,47.63
2018-07-28T12:41:43.733Z,45.38
2018-07-28T12:44:11.976Z,45.48
2018-07-28T12:46:40.215Z,45.54
2018-07-28T12:49:08.686Z,42.33
2018-07-28T12:51:36.939Z,43.08
2018-07-28T12:54:05.394Z,41.03
2018-07-28T12:56:33.614Z,40.38
2018-07-28T12:59:01.870Z,39.26
2018-07-28T13:01:30.090Z,37.45
2018-07-28T13:03:58.399Z,36.16
2018-07-28T13:06:26.532Z,36.32
2018-07-28T13:08:54.822Z,33.94
2018-07-28T13:11:23.034Z,34.96
2018-07-28T13:13:51.218Z,35.77
2018-07-28T13:16:19.453Z,35.41
2018-07-28T13:18:47.605Z,35.71
2018-07-28T13:21:16.117Z,34.84
2018-07-28T13:23:44.429Z,35.37
2018-07-28T13:26:12.878Z,34.01
2018-07-28T13:28:41.029Z,34.66
2018-07-28T13:31:09.207Z,34.83
2018-07-28T13:33:37.547Z,33.83
2018-07-28T13:36:05.821Z,35.66
2018-07-28T13:38:33.998Z,36.27
2018-07-28T13:41:02.169Z,34.88
2018-07-28T13:43:30.380Z,36.58
2018-07-28T13:45:58.632Z,37.87
2018-07-28T13:48:26.893Z,37.01
2018-07-28T13:50:55.057Z,35.26
2018-07-28T13:53:23.679Z,40.60
2018-07-28T13:55:51.814Z,36.16
2018-07-28T13:58:20.013Z,43.02
2018-07-28T14:00:48.272Z,45.20
2018-07-28T14:03:16.552Z,42.54
2018-07-28T14:05:44.922Z,41.99
2018-07-28T14:08:13.110Z,40.18
2018-07-28T14:10:41.378Z,36.93
2018-07-28T14:13:09.589Z,35.18
2018-07-28T14:15:37.794Z,34.90
2018-07-28T14:18:06.242Z,33.56
2018-07-28T14:20:34.410Z,33.31
2018-07-28T14:23:02.666Z,33.15
2018-07-28T14:25:30.866Z,32.70
2018-07-28T14:27:59.226Z,32.57
2018-07-28T14:30:27.446Z,32.16
2018-07-28T14:32:55.614Z,31.86
2018-07-28T14:35:23.795Z,31.30
2018-07-28T14:37:52.166Z,30.76
2018-07-28T14:40:20.390Z,31.15
2018-07-28T14:42:48.651Z,30.57
2018-07-28T14:45:17.141Z,30.85
2018-07-28T14:47:45.365Z,30.47
2018-07-28T14:50:13.581Z,30.59
2018-07-28T14:52:42.077Z,30.55
2018-07-28T14:55:10.362Z,30.48
2018-07-28T14:57:38.530Z,30.24
2018-07-28T15:00:07.161Z,30.41
2018-07-28T15:02:35.377Z,30.00
2018-07-28T15:05:03.603Z,29.44
2018-07-28T15:07:31.782Z,28.89
2018-07-28T15:09:59.967Z,28.69
2018-07-28T15:12:28.181Z,28.89
2018-07-28T15:14:56.457Z,28.86
2018-07-28T15:17:24.722Z,28.79
2018-07-28T15:19:52.892Z,28.93
2018-07-28T15:22:21.088Z,29.95
2018-07-28T15:24:49.380Z,30.64
2018-07-28T15:27:17.626Z,31.21
2018-07-28T15:29:45.934Z,31.36
2018-07-28T15:32:14.121Z,33.27
2018-07-28T15:34:42.345Z,32.03
2018-07-28T15:37:10.568Z,32.83
2018-07-28T15:39:38.809Z,33.43
2018-07-28T15:42:07.217Z,32.89
2018-07-28T15:44:35.511Z,32.80
2018-07-28T15:47:03.763Z,31.93
2018-07-28T15:49:32.292Z,32.38
2018-07-28T15:52:00.503Z,33.04
2018-07-28T15:54:28.737Z,33.26
2018-07-28T15:56:56.892Z,32.34
2018-07-28T15:59:25.086Z,32.29
2018-07-28T16:01:53.375Z,32.68
2018-07-28T16:04:22.735Z,34.71
2018-07-28T16:06:51.126Z,33.05
2018-07-28T16:09:19.334Z,32.77
2018-07-28T16:11:47.664Z,33.40
2018-07-28T16:14:15.917Z,32.63
2018-07-28T16:16:44.146Z,31.40
2018-07-28T16:19:12.480Z,31.62
2018-07-28T16:21:40.734Z,31.97
2018-07-28T16:24:09.482Z,31.61
2018-07-28T16:26:37.682Z,31.76
2018-07-28T16:29:05.921Z,31.20
2018-07-28T16:31:34.148Z,31.40
2018-07-28T16:34:02.414Z,31.26
2018-07-28T16:36:30.616Z,31.21
2018-07-28T16:38:58.818Z,30.91
2018-07-28T16:41:27.263Z,30.86
2018-07-28T16:43:55.539Z,30.50
2018-07-28T16:46:24.718Z,31.06
2018-07-28T16:48:53.309Z,30.93
2018-07-28T16:51:21.511Z,31.04
2018-07-28T16:53:49.781Z,31.20
2018-07-28T16:56:17.963Z,30.61
2018-07-28T16:58:46.201Z,30.42
2018-07-28T17:01:14.398Z,30.73
2018-07-28T17:03:42.647Z,30.45
2018-07-28T17:06:10.939Z,30.32
2018-07-28T17:08:39.194Z,30.58
2018-07-28T17:11:07.451Z,30.49
2018-07-28T17:13:35.714Z,30.26
2018-07-28T17:16:03.918Z,30.15
2018-07-28T17:18:32.091Z,29.91
2018-07-28T17:21:00.382Z,29.59
2018-07-28T17:23:28.563Z,29.61
2018-07-28T17:25:56.860Z,29.33
2018-07-28T17:28:25.118Z,29.40
2018-07-28T17:30:53.697Z,29.28
2018-07-28T17:33:21.862Z,28.92
2018-07-28T17:35:50.190Z,28.85
2018-07-28T17:38:18.418Z,28.46
2018-07-28T17:40:46.783Z,28.60
2018-07-28T17:43:14.909Z,28.59
2018-07-28T17:45:43.248Z,28.43
2018-07-28T17:48:11.443Z,28.37
2018-07-28T17:50:39.645Z,28.72
2018-07-28T17:53:08.173Z,28.42
2018-07-28T17:55:36.441Z,28.14
2018-07-28T17:58:05.527Z,28.32
2018-07-28T18:00:33.713Z,28.25
2018-07-28T18:03:01.885Z,28.26
2018-07-28T18:05:30.068Z,28.06
2018-07-28T18:07:58.632Z,27.94
2018-07-28T18:10:26.914Z,28.09
2018-07-28T18:12:55.119Z,28.02
2018-07-28T18:15:25.145Z,28.00
2018-07-28T18:17:53.328Z,28.03
2018-07-28T18:20:21.553Z,28.03
2018-07-28T18:22:49.740Z,27.94
2018-07-28T18:25:17.914Z,27.96
2018-07-28T18:27:46.193Z,27.90
2018-07-28T18:30:14.392Z,27.75
2018-07-28T18:32:42.608Z,27.78
2018-07-28T18:35:10.778Z,27.72
2018-07-28T18:37:39.026Z,27.39
2018-07-28T18:40:07.460Z,27.33
2018-07-28T18:42:35.662Z,27.32
2018-07-28T18:45:04.100Z,27.04
2018-07-28T18:47:32.369Z,27.04
2018-07-28T18:50:00.634Z,27.24
2018-07-28T18:52:28.845Z,27.04
2018-07-28T18:54:57.021Z,27.18
2018-07-28T18:57:25.301Z,27.07
2018-07-28T18:59:53.505Z,27.17
2018-07-28T19:02:21.701Z,26.79
2018-07-28T19:04:50.000Z,27.02
2018-07-28T19:07:18.198Z,26.90
2018-07-28T19:09:50.587Z,26.90
2018-07-28T19:12:22.940Z,26.78
2018-07-28T19:14:51.366Z,27.05
2018-07-28T19:17:19.614Z,27.05
2018-07-28T19:19:47.876Z,27.11
2018-07-28T19:22:21.547Z,27.10
2018-07-28T19:24:49.700Z,26.76
2018-07-28T19:27:17.926Z,26.73
2018-07-28T19:29:46.221Z,27.06
2018-07-28T19:32:14.394Z,26.84
2018-07-28T19:34:42.763Z,26.87
2018-07-28T19:37:16.267Z,26.92
2018-07-28T19:39:44.425Z,26.55
2018-07-28T19:42:18.202Z,26.68
2018-07-28T19:44:46.396Z,26.69
2018-07-28T19:47:15.292Z,26.19
2018-07-28T19:49:43.786Z,26.48
2018-07-28T19:52:11.946Z,26.40
2018-07-28T19:54:40.450Z,26.76
2018-07-28T19:57:08.636Z,26.45
2018-07-28T19:59:36.794Z,26.27
2018-07-28T20:02:04.966Z,26.72
2018-07-28T20:04:33.238Z,26.61
2018-07-28T20:07:01.426Z,26.58
2018-07-28T20:09:29.648Z,26.72
2018-07-28T20:11:58.682Z,26.73
2018-07-28T20:14:26.969Z,26.72
2018-07-28T20:16:55.158Z,26.69
2018-07-28T20:19:23.387Z,26.83
2018-07-28T20:21:51.545Z,26.63
2018-07-28T20:24:19.741Z,26.38
2018-07-28T20:26:47.927Z,26.62
2018-07-28T20:29:16.119Z,26.46
2018-07-28T20:31:44.477Z,26.66
2018-07-28T20:34:12.655Z,26.60
2018-07-28T20:36:40.829Z,26.54
2018-07-28T20:39:10.500Z,26.45
2018-07-28T20:41:38.869Z,26.37
2018-07-28T20:44:07.038Z,26.21
2018-07-28T20:46:35.254Z,26.12
2018-07-28T20:49:03.539Z,26.09
2018-07-28T20:51:31.640Z,26.04
2018-07-28T20:53:59.872Z,25.99
2018-07-28T20:56:28.072Z,26.03
2018-07-28T20:58:56.331Z,25.79
2018-07-28T21:01:24.515Z,25.71
2018-07-28T21:03:53.104Z,25.64
2018-07-28T21:06:21.290Z,25.61
2018-07-28T21:08:49.816Z,25.50
2018-07-28T21:11:18.086Z,25.43
2018-07-28T21:13:46.310Z,25.28
2018-07-28T21:16:14.575Z,25.32
2018-07-28T21:18:43.157Z,25.32
2018-07-28T21:21:11.346Z,25.29
2018-07-28T21:23:46.177Z,25.19
2018-07-28T21:26:14.425Z,25.29
2018-07-28T21:28:42.829Z,25.23
2018-07-28T21:31:11.161Z,25.24
2018-07-28T21:33:39.406Z,25.22
2018-07-28T21:36:07.533Z,25.20
2018-07-28T21:38:36.042Z,25.31
2018-07-28T21:41:04.403Z,25.03
2018-07-28T21:43:32.670Z,25.27
2018-07-28T21:46:00.871Z,25.31
2018-07-28T21:48:29.121Z,25.04
2018-07-28T21:50:57.686Z,25.21
2018-07-28T21:53:25.890Z,25.29
2018-07-28T21:55:54.078Z,25.16
2018-07-28T21:58:22.388Z,25.19
2018-07-28T22:01:03.300Z,25.15
2018-07-28T22:03:31.633Z,24.85
2018-07-28T22:05:59.799Z,24.96
2018-07-28T22:08:28.038Z,25.18
2018-07-28T22:10:56.218Z,25.09
2018-07-28T22:13:24.744Z,25.04
2018-07-28T22:15:52.977Z,25.09
2018-07-28T22:18:21.217Z,25.23
2018-07-28T22:20:50.415Z,25.10
2018-07-28T22:23:18.653Z,25.17
2018-07-28T22:25:46.845Z,25.13
2018-07-28T22:28:15.115Z,25.20
2018-07-28T22:30:43.404Z,24.98
2018-07-28T22:33:11.608Z,24.85
2018-07-28T22:35:39.805Z,24.58
2018-07-28T22:38:08.011Z,24.66
2018-07-28T22:40:36.280Z,24.64
2018-07-28T22:43:04.518Z,24.50
2018-07-28T22:45:33.083Z,24.71
2018-07-28T22:48:01.250Z,24.61
2018-07-28T22:50:29.425Z,24.40
2018-07-28T22:52:57.636Z,24.47
2018-07-28T22:55:25.800Z,24.72
2018-07-28T22:57:54.018Z,24.32
2018-07-28T23:00:22.270Z,24.41
2018-07-28T23:02:50.528Z,24.18
2018-07-28T23:05:18.788Z,24.14
2018-07-28T23:07:47.057Z,24.10
2018-07-28T23:10:15.349Z,24.25
2018-07-28T23:12:43.577Z,24.59
2018-07-28T23:15:12.266Z,24.51
2018-07-28T23:17:40.794Z,23.94
2018-07-28T23:20:08.987Z,24.23
2018-07-28T23:22:37.197Z,24.63
2018-07-28T23:25:06.496Z,24.22
2018-07-28T23:27:34.649Z,24.11
2018-07-28T23:30:03.121Z,24.18
2018-07-28T23:32:31.364Z,24.50
2018-07-28T23:34:59.523Z,24.59
2018-07-28T23:37:27.735Z,24.72
2018-07-28T23:39:56.213Z,24.43
2018-07-28T23:42:24.393Z,24.45
2018-07-28T23:44:52.667Z,24.55
2018-07-28T23:47:20.830Z,24.57
2018-07-28T23:49:49.018Z,24.39
2018-07-28T23:52:17.200Z,24.49
2018-07-28T23:54:45.430Z,24.41
2018-07-28T23:57:13.648Z,24.47
2018-07-28T23:59:41.908Z,24.31
